RPC9307 RPLL-RPLB
Flight info
| Callsign | RPC9307 |
|---|---|
| Flight time | 0h 29m |
| Altitude | 6000 |
| Route | SIRCA2F SIRCA DCT OLONG DCT SBA |
| Aircraft | B58T/L-SDFGRY/C |
Departure
| Time | 2026-05-07 16:58 |
|---|---|
| Airport | Ninoy Aquino International Airport (RPLL) |
Arrival
| Time | 2026-05-07 17:28 |
|---|---|
| Airport | Subic Bay International Airport / Naval Air Station Cubi Point (RPLB) |
| Time | Latitude | Longitude | Altitude | Speed | Heading |
|---|---|---|---|---|---|
| 2026-05-07 16:50 | 14.51853 | 121.00484 | 63 ft | 0 kts | 329° |
| 2026-05-07 16:54 | 14.51865 | 121.00489 | 59 ft | 4 kts | 55° |
| 2026-05-07 16:54 | 14.51857 | 121.00523 | 63 ft | 8 kts | 106° |
| 2026-05-07 16:55 | 14.51868 | 121.00586 | 60 ft | 7 kts | 51° |
| 2026-05-07 16:55 | 14.51924 | 121.00602 | 63 ft | 11 kts | 8° |
| 2026-05-07 16:55 | 14.51994 | 121.00615 | 59 ft | 13 kts | 7° |
| 2026-05-07 16:55 | 14.52083 | 121.00630 | 56 ft | 6 kts | 9° |
| 2026-05-07 16:56 | 14.52108 | 121.00662 | 58 ft | 8 kts | 119° |
| 2026-05-07 16:56 | 14.52099 | 121.00674 | 62 ft | 0 kts | 133° |
| 2026-05-07 16:57 | 14.52028 | 121.00751 | 63 ft | 51 kts | 134° |
| 2026-05-07 16:57 | 14.51604 | 121.01194 | 88 ft | 112 kts | 136° |
| 2026-05-07 16:58 | 14.50994 | 121.01796 | 327 ft | 126 kts | 135° |
| 2026-05-07 16:58 | 14.50424 | 121.02453 | 762 ft | 125 kts | 131° |
| 2026-05-07 16:58 | 14.49813 | 121.03155 | 1037 ft | 133 kts | 132° |
| 2026-05-07 16:58 | 14.49177 | 121.03867 | 1292 ft | 141 kts | 132° |
| 2026-05-07 16:59 | 14.48483 | 121.04617 | 1571 ft | 142 kts | 131° |
| 2026-05-07 16:59 | 14.47817 | 121.05347 | 1869 ft | 144 kts | 134° |
| 2026-05-07 16:59 | 14.47156 | 121.06112 | 2160 ft | 143 kts | 124° |
| 2026-05-07 16:59 | 14.46526 | 121.06943 | 2351 ft | 149 kts | 126° |
| 2026-05-07 17:00 | 14.45851 | 121.07732 | 2692 ft | 143 kts | 126° |
| 2026-05-07 17:00 | 14.45086 | 121.08406 | 2927 ft | 151 kts | 147° |
| 2026-05-07 17:00 | 14.44065 | 121.08724 | 3168 ft | 158 kts | 170° |
| 2026-05-07 17:00 | 14.42967 | 121.08558 | 3431 ft | 162 kts | 197° |
| 2026-05-07 17:01 | 14.42001 | 121.07949 | 3692 ft | 166 kts | 220° |
| 2026-05-07 17:01 | 14.41284 | 121.07004 | 3910 ft | 169 kts | 241° |
| 2026-05-07 17:01 | 14.40966 | 121.05863 | 4123 ft | 171 kts | 271° |
| 2026-05-07 17:01 | 14.41300 | 121.04693 | 4298 ft | 170 kts | 302° |
| 2026-05-07 17:02 | 14.41937 | 121.03743 | 4726 ft | 156 kts | 309° |
| 2026-05-07 17:02 | 14.42599 | 121.02831 | 4914 ft | 163 kts | 308° |
| 2026-05-07 17:02 | 14.43243 | 121.01850 | 5150 ft | 165 kts | 304° |
| 2026-05-07 17:02 | 14.43831 | 121.00853 | 5452 ft | 162 kts | 304° |
| 2026-05-07 17:03 | 14.44500 | 120.99898 | 5656 ft | 166 kts | 311° |
| 2026-05-07 17:03 | 14.45174 | 120.98936 | 5934 ft | 164 kts | 304° |
| 2026-05-07 17:03 | 14.45720 | 120.97853 | 5912 ft | 184 kts | 297° |
| 2026-05-07 17:03 | 14.46184 | 120.96594 | 6116 ft | 174 kts | 278° |
| 2026-05-07 17:04 | 14.45892 | 120.95469 | 6455 ft | 172 kts | 229° |
| 2026-05-07 17:04 | 14.44865 | 120.94666 | 6231 ft | 195 kts | 224° |
| 2026-05-07 17:04 | 14.44062 | 120.93507 | 6151 ft | 203 kts | 240° |
| 2026-05-07 17:04 | 14.43626 | 120.92143 | 6009 ft | 208 kts | 284° |
| 2026-05-07 17:05 | 14.44334 | 120.90884 | 6006 ft | 203 kts | 305° |
| 2026-05-07 17:05 | 14.44949 | 120.89573 | 6086 ft | 201 kts | 295° |
| 2026-05-07 17:05 | 14.45383 | 120.88231 | 6097 ft | 205 kts | 277° |
| 2026-05-07 17:05 | 14.45371 | 120.86740 | 6009 ft | 209 kts | 267° |
| 2026-05-07 17:06 | 14.45296 | 120.85245 | 6010 ft | 207 kts | 269° |
| 2026-05-07 17:06 | 14.45301 | 120.83776 | 6004 ft | 203 kts | 272° |
| 2026-05-07 17:06 | 14.45334 | 120.82331 | 5999 ft | 200 kts | 272° |
| 2026-05-07 17:06 | 14.45361 | 120.80906 | 5997 ft | 198 kts | 271° |
| 2026-05-07 17:07 | 14.45383 | 120.79493 | 5992 ft | 197 kts | 272° |
| 2026-05-07 17:07 | 14.45405 | 120.78084 | 5994 ft | 196 kts | 271° |
| 2026-05-07 17:07 | 14.45426 | 120.76681 | 5992 ft | 195 kts | 271° |
| 2026-05-07 17:07 | 14.45448 | 120.75277 | 5996 ft | 195 kts | 271° |
| 2026-05-07 17:08 | 14.45470 | 120.73873 | 5994 ft | 195 kts | 271° |
| 2026-05-07 17:08 | 14.45492 | 120.72469 | 5995 ft | 196 kts | 272° |
| 2026-05-07 17:08 | 14.45514 | 120.71065 | 5996 ft | 196 kts | 271° |
| 2026-05-07 17:08 | 14.45535 | 120.69661 | 5992 ft | 196 kts | 271° |
| 2026-05-07 17:09 | 14.45556 | 120.68271 | 5994 ft | 196 kts | 271° |
| 2026-05-07 17:09 | 14.45578 | 120.66865 | 5994 ft | 196 kts | 271° |
| 2026-05-07 17:09 | 14.45599 | 120.65456 | 5994 ft | 196 kts | 271° |
| 2026-05-07 17:09 | 14.45620 | 120.64045 | 5995 ft | 197 kts | 271° |
| 2026-05-07 17:10 | 14.45642 | 120.62630 | 5992 ft | 197 kts | 271° |
| 2026-05-07 17:10 | 14.45663 | 120.61216 | 5997 ft | 197 kts | 271° |
| 2026-05-07 17:10 | 14.45683 | 120.59804 | 5995 ft | 197 kts | 271° |
| 2026-05-07 17:10 | 14.45703 | 120.58385 | 6000 ft | 197 kts | 271° |
| 2026-05-07 17:11 | 14.45725 | 120.56964 | 5995 ft | 198 kts | 271° |
| 2026-05-07 17:11 | 14.45747 | 120.55541 | 5997 ft | 198 kts | 271° |
| 2026-05-07 17:11 | 14.45768 | 120.54118 | 5993 ft | 198 kts | 271° |
| 2026-05-07 17:11 | 14.45789 | 120.52695 | 5996 ft | 198 kts | 271° |
| 2026-05-07 17:12 | 14.45809 | 120.51289 | 5997 ft | 199 kts | 271° |
| 2026-05-07 17:12 | 14.45830 | 120.49865 | 5999 ft | 197 kts | 271° |
| 2026-05-07 17:12 | 14.45851 | 120.48448 | 5992 ft | 198 kts | 271° |
| 2026-05-07 17:12 | 14.45871 | 120.47031 | 5993 ft | 198 kts | 271° |
| 2026-05-07 17:13 | 14.45892 | 120.45612 | 5994 ft | 198 kts | 271° |
| 2026-05-07 17:13 | 14.45912 | 120.44195 | 5990 ft | 197 kts | 271° |
| 2026-05-07 17:13 | 14.45932 | 120.42783 | 5991 ft | 197 kts | 271° |
| 2026-05-07 17:13 | 14.45951 | 120.41370 | 5991 ft | 197 kts | 271° |
| 2026-05-07 17:14 | 14.45972 | 120.39952 | 5991 ft | 198 kts | 271° |
| 2026-05-07 17:14 | 14.45992 | 120.38529 | 5992 ft | 198 kts | 271° |
| 2026-05-07 17:14 | 14.46012 | 120.37125 | 5992 ft | 198 kts | 271° |
| 2026-05-07 17:14 | 14.46031 | 120.35700 | 5993 ft | 199 kts | 271° |
| 2026-05-07 17:15 | 14.46053 | 120.34283 | 5922 ft | 196 kts | 273° |
| 2026-05-07 17:15 | 14.46390 | 120.32920 | 5707 ft | 196 kts | 298° |
| 2026-05-07 17:15 | 14.47117 | 120.31742 | 5596 ft | 194 kts | 308° |
| 2026-05-07 17:15 | 14.47901 | 120.30626 | 5466 ft | 194 kts | 308° |
| 2026-05-07 17:16 | 14.48671 | 120.29483 | 5354 ft | 193 kts | 307° |
| 2026-05-07 17:16 | 14.49429 | 120.28337 | 5224 ft | 193 kts | 307° |
| 2026-05-07 17:16 | 14.50188 | 120.27192 | 5123 ft | 193 kts | 307° |
| 2026-05-07 17:16 | 14.50943 | 120.26051 | 5020 ft | 192 kts | 307° |
| 2026-05-07 17:17 | 14.51692 | 120.24918 | 5003 ft | 192 kts | 306° |
| 2026-05-07 17:17 | 14.52445 | 120.23775 | 5010 ft | 193 kts | 307° |
| 2026-05-07 17:17 | 14.53202 | 120.22634 | 5008 ft | 192 kts | 307° |
| 2026-05-07 17:17 | 14.53959 | 120.21490 | 5008 ft | 192 kts | 306° |
| 2026-05-07 17:18 | 14.54714 | 120.20348 | 5005 ft | 193 kts | 307° |
| 2026-05-07 17:18 | 14.55460 | 120.19219 | 5007 ft | 193 kts | 307° |
| 2026-05-07 17:18 | 14.56218 | 120.18073 | 5007 ft | 193 kts | 307° |
| 2026-05-07 17:18 | 14.56975 | 120.16926 | 5000 ft | 193 kts | 306° |
| 2026-05-07 17:19 | 14.57733 | 120.15780 | 5005 ft | 193 kts | 306° |
| 2026-05-07 17:19 | 14.58490 | 120.14634 | 5005 ft | 193 kts | 307° |
| 2026-05-07 17:19 | 14.59246 | 120.13489 | 5005 ft | 193 kts | 306° |
| 2026-05-07 17:19 | 14.60004 | 120.12342 | 5006 ft | 193 kts | 306° |
| 2026-05-07 17:20 | 14.60761 | 120.11195 | 5001 ft | 193 kts | 306° |
| 2026-05-07 17:20 | 14.61595 | 120.10124 | 4975 ft | 190 kts | 322° |
| 2026-05-07 17:20 | 14.62729 | 120.09463 | 4849 ft | 186 kts | 345° |
| 2026-05-07 17:20 | 14.63993 | 120.09231 | 4733 ft | 184 kts | 356° |
| 2026-05-07 17:21 | 14.65263 | 120.09059 | 4638 ft | 184 kts | 356° |
| 2026-05-07 17:21 | 14.66524 | 120.08881 | 4541 ft | 182 kts | 356° |
| 2026-05-07 17:21 | 14.67782 | 120.08710 | 4381 ft | 181 kts | 356° |
| 2026-05-07 17:21 | 14.69026 | 120.08676 | 4164 ft | 179 kts | 14° |
| 2026-05-07 17:22 | 14.70147 | 120.09154 | 3909 ft | 173 kts | 37° |
| 2026-05-07 17:22 | 14.70970 | 120.10021 | 3659 ft | 167 kts | 59° |
| 2026-05-07 17:22 | 14.71507 | 120.11063 | 3420 ft | 162 kts | 63° |
| 2026-05-07 17:22 | 14.72026 | 120.12068 | 3187 ft | 154 kts | 63° |
| 2026-05-07 17:23 | 14.72507 | 120.13005 | 2967 ft | 141 kts | 63° |
| 2026-05-07 17:23 | 14.72955 | 120.13878 | 2767 ft | 135 kts | 63° |
| 2026-05-07 17:23 | 14.73381 | 120.14710 | 2577 ft | 131 kts | 63° |
| 2026-05-07 17:23 | 14.73801 | 120.15532 | 2421 ft | 126 kts | 63° |
| 2026-05-07 17:24 | 14.74197 | 120.16306 | 2417 ft | 120 kts | 63° |
| 2026-05-07 17:24 | 14.74621 | 120.17092 | 2273 ft | 131 kts | 62° |
| 2026-05-07 17:24 | 14.75070 | 120.17946 | 2073 ft | 139 kts | 63° |
| 2026-05-07 17:24 | 14.75509 | 120.18832 | 1910 ft | 137 kts | 64° |
| 2026-05-07 17:25 | 14.75909 | 120.19642 | 1681 ft | 116 kts | 65° |
| 2026-05-07 17:25 | 14.76257 | 120.20355 | 1364 ft | 109 kts | 63° |
| 2026-05-07 17:25 | 14.76645 | 120.21058 | 1088 ft | 116 kts | 62° |
| 2026-05-07 17:25 | 14.77015 | 120.21806 | 903 ft | 116 kts | 64° |
| 2026-05-07 17:26 | 14.77371 | 120.22570 | 736 ft | 121 kts | 65° |
| 2026-05-07 17:26 | 14.77761 | 120.23347 | 615 ft | 118 kts | 62° |
| 2026-05-07 17:26 | 14.78133 | 120.24070 | 440 ft | 113 kts | 64° |
| 2026-05-07 17:26 | 14.78470 | 120.24782 | 368 ft | 109 kts | 68° |
| 2026-05-07 17:27 | 14.78771 | 120.25479 | 216 ft | 105 kts | 69° |
| 2026-05-07 17:27 | 14.79050 | 120.26168 | 110 ft | 101 kts | 69° |
| 2026-05-07 17:27 | 14.79308 | 120.26781 | 30 ft | 78 kts | 69° |
| 2026-05-07 17:27 | 14.79466 | 120.27192 | 26 ft | 50 kts | 68° |
| 2026-05-07 17:28 | 14.79579 | 120.27469 | 27 ft | 36 kts | 66° |
| 2026-05-07 17:28 | 14.79663 | 120.27678 | 28 ft | 29 kts | 66° |
| 2026-05-07 17:28 | 14.79742 | 120.27871 | 27 ft | 34 kts | 69° |
| 2026-05-07 17:28 | 14.79836 | 120.28105 | 25 ft | 25 kts | 67° |
| 2026-05-07 17:29 | 14.79780 | 120.28189 | 26 ft | 16 kts | 158° |
| 2026-05-07 17:29 | 14.79749 | 120.28251 | 26 ft | 14 kts | 77° |
| 2026-05-07 17:29 | 14.79786 | 120.28351 | 26 ft | 16 kts | 68° |
| 2026-05-07 17:29 | 14.79809 | 120.28443 | 26 ft | 9 kts | 118° |
| 2026-05-07 17:30 | 14.79768 | 120.28461 | 26 ft | 0 kts | 163° |
| 2026-05-07 17:30 | 14.79735 | 120.28473 | 26 ft | 0 kts | 160° |
| 2026-05-07 17:31 | 14.79717 | 120.28479 | 26 ft | 0 kts | 162° |
| 2026-05-07 17:32 | 14.79697 | 120.28483 | 26 ft | 9 kts | 187° |
| 2026-05-07 17:32 | 14.79674 | 120.28473 | 26 ft | 6 kts | 201° |
| 2026-05-07 17:33 | 14.79646 | 120.28447 | 26 ft | 5 kts | 249° |
| 2026-05-07 17:33 | 14.79645 | 120.28444 | 26 ft | 0 kts | 248° |